Time;durP1;ratioP1;P1;durP2;ratioP2;P2;SDS_P1;SDS_P2;PMS_P1;PMS_P2;Temp;Humidity;BMP_temperature;BMP_pressure;BME280_temperature;BME280_humidity;BME280_pressure;Samples;Min_cycle;Max_cycle;Signal;HPM_P1;HPM_P2
2024/04/06 00:00:51;;;;;;;;;;;;;;;;;;5067843;28;19925;-76
2024/04/06 00:03:17;;;;;;;;;;;;;;;;;;5071065;28;19928;-77
2024/04/06 00:05:44;;;;;;;;;;;;;;;;;;5070381;28;19928;-75
2024/04/06 00:08:10;;;;;;;;;;;;;;;;;;5069221;28;20445;-75
2024/04/06 00:10:37;;;;;;;;;;;;;;;;;;5067392;28;20642;-76
2024/04/06 00:13:03;;;;;;;;;;;;;;;;;;5067305;28;20013;-75
2024/04/06 00:15:30;;;;;;;;;;;;;;;;;;5068091;28;20418;-76
2024/04/06 00:17:56;;;;;;;;;;;;;;;;;;5066615;28;19928;-76
2024/04/06 00:20:23;;;;;;;;;;;;;;;;;;5068280;28;19939;-77
2024/04/06 00:22:49;;;;;;;;;;;;;;;;;;5063904;28;19971;-77
2024/04/06 00:25:16;;;;;;;;;;;;;;;;;;5068333;28;20505;-76
2024/04/06 00:27:43;;;;;;;;;;;;;;;;;;5061714;28;20389;-76
2024/04/06 00:30:10;;;;;;;;;;;;;;;;;;5066852;28;19929;-76
2024/04/06 00:32:36;;;;;;;;;;;;;;;;;;5067826;28;19928;-76
2024/04/06 00:35:03;;;;;;;;;;;;;;;;;;5065521;28;19932;-76
2024/04/06 00:37:29;;;;;;;;;;;;;;;;;;5067419;28;19929;-76
2024/04/06 00:39:56;;;;;;;;;;;;;;;;;;5066524;28;20281;-76
2024/04/06 00:42:22;;;;;;;;;;;;;;;;;;5063541;28;20466;-76
2024/04/06 00:44:50;;;;;;;;;;;;;;;;;;5066991;28;20450;-76
2024/04/06 00:47:16;;;;;;;;;;;;;;;;;;5067656;28;19935;-76
2024/04/06 00:49:43;;;;;;;;;;;;;;;;;;5066163;28;19928;-76
2024/04/06 00:52:09;;;;;;;;;;;;;;;;;;5070624;28;19928;-75
2024/04/06 00:54:36;;;;;;;;;;;;;;;;;;5081744;28;19928;-76
2024/04/06 00:57:06;;;;;;;;;;;;;;;;;;5068817;28;19982;-76
2024/04/06 00:59:33;;;;;;;;;;;;;;;;;;5066896;28;20391;-76
2024/04/06 01:01:59;;;;;;;;;;;;;;;;;;5067723;28;19982;-76
2024/04/06 01:04:27;;;;;;;;;;;;;;;;;;5064918;28;19928;-76
2024/04/06 01:06:54;;;;;;;;;;;;;;;;;;5054147;28;19972;-76
2024/04/06 01:09:21;;;;;;;;;;;;;;;;;;5066865;28;20414;-75
2024/04/06 01:11:47;;;;;;;;;;;;;;;;;;5067683;28;20013;-76
2024/04/06 01:14:14;;;;;;;;;;;;;;;;;;5066953;28;19936;-75
2024/04/06 01:16:40;;;;;;;;;;;;;;;;;;5067903;28;19929;-76
2024/04/06 01:19:07;;;;;;;;;;;;;;;;;;5065490;28;19990;-75
2024/04/06 01:21:34;;;;;;;;;;;;;;;;;;5065322;28;19942;-76
2024/04/06 01:24:01;;;;;;;;;;;;;;;;;;5075077;28;20399;-76
2024/04/06 01:26:27;;;;;;;;;;;;;;;;;;5068623;28;19944;-76
2024/04/06 01:28:54;;;;;;;;;;;;;;;;;;5065740;28;20718;-76
2024/04/06 01:31:20;;;;;;;;;;;;;;;;;;5062146;28;20319;-75
2024/04/06 01:33:47;;;;;;;;;;;;;;;;;;5058465;28;19929;-74
2024/04/06 01:36:13;;;;;;;;;;;;;;;;;;5067020;28;19933;-75
2024/04/06 01:38:40;;;;;;;;;;;;;;;;;;5066691;28;19936;-75
2024/04/06 01:41:06;;;;;;;;;;;;;;;;;;5065741;28;19936;-76
2024/04/06 01:43:33;;;;;;;;;;;;;;;;;;5063791;28;19932;-76
2024/04/06 01:45:59;;;;;;;;;;;;;;;;;;5061057;28;20039;-76
2024/04/06 01:48:26;;;;;;;;;;;;;;;;;;5063305;28;19935;-76
2024/04/06 01:50:52;;;;;;;;;;;;;;;;;;5065458;28;19964;-76
2024/04/06 01:53:19;;;;;;;;;;;;;;;;;;5065587;28;19929;-76
2024/04/06 01:55:45;;;;;;;;;;;;;;;;;;5067067;28;20395;-76
2024/04/06 01:58:12;;;;;;;;;;;;;;;;;;5061791;28;20415;-76
2024/04/06 02:00:39;;;;;;;;;;;;;;;;;;5066849;28;19960;-76
2024/04/06 02:03:06;;;;;;;;;;;;;;;;;;5064691;28;19963;-76
2024/04/06 02:05:32;;;;;;;;;;;;;;;;;;5067289;28;20028;-76
2024/04/06 02:07:59;;;;;;;;;;;;;;;;;;5067672;28;19939;-75
2024/04/06 02:10:25;;;;;;;;;;;;;;;;;;5066512;28;20314;-76
2024/04/06 02:12:54;;;;;;;;;;;;;;;;;;5068007;28;19936;-76
2024/04/06 02:15:20;;;;;;;;;;;;;;;;;;5066222;28;20391;-76
2024/04/06 02:17:48;;;;;;;;;;;;;;;;;;5063875;28;19962;-75
2024/04/06 02:20:14;;;;;;;;;;;;;;;;;;5066404;28;20409;-75
2024/04/06 02:22:41;;;;;;;;;;;;;;;;;;5067884;28;19997;-75
2024/04/06 02:25:07;;;;;;;;;;;;;;;;;;5067030;28;19936;-75
2024/04/06 02:27:34;;;;;;;;;;;;;;;;;;5065326;28;19929;-75
2024/04/06 02:30:00;;;;;;;;;;;;;;;;;;5065514;28;19932;-74
2024/04/06 02:32:28;;;;;;;;;;;;;;;;;;5065040;28;19935;-74
2024/04/06 02:34:54;;;;;;;;;;;;;;;;;;5067445;28;20023;-74
2024/04/06 02:37:21;;;;;;;;;;;;;;;;;;5066406;28;20410;-75
2024/04/06 02:39:47;;;;;;;;;;;;;;;;;;5062826;28;19976;-75
2024/04/06 02:42:14;;;;;;;;;;;;;;;;;;5064900;28;20330;-75
2024/04/06 02:44:40;;;;;;;;;;;;;;;;;;5068875;28;20464;-74
2024/04/06 02:47:07;;;;;;;;;;;;;;;;;;5069184;28;19935;-75
2024/04/06 02:49:34;;;;;;;;;;;;;;;;;;5063292;28;20154;-75
2024/04/06 02:52:01;;;;;;;;;;;;;;;;;;5064889;28;20051;-75
2024/04/06 02:54:27;;;;;;;;;;;;;;;;;;5067313;28;19928;-75
2024/04/06 02:56:54;;;;;;;;;;;;;;;;;;5061267;28;19979;-74
2024/04/06 02:59:20;;;;;;;;;;;;;;;;;;5068467;28;20338;-75
2024/04/06 03:01:48;;;;;;;;;;;;;;;;;;5063541;28;19982;-74
2024/04/06 03:04:14;;;;;;;;;;;;;;;;;;5064409;28;20011;-75
2024/04/06 03:06:41;;;;;;;;;;;;;;;;;;5066735;28;19928;-74
2024/04/06 03:09:07;;;;;;;;;;;;;;;;;;5067953;28;19967;-75
2024/04/06 03:11:34;;;;;;;;;;;;;;;;;;5066172;28;19928;-75
2024/04/06 03:14:00;;;;;;;;;;;;;;;;;;5064357;28;19932;-74
2024/04/06 03:16:27;;;;;;;;;;;;;;;;;;5066364;28;19954;-76
2024/04/06 03:18:53;;;;;;;;;;;;;;;;;;5066327;28;19978;-75
2024/04/06 03:21:21;;;;;;;;;;;;;;;;;;5068994;28;19928;-76
2024/04/06 03:23:47;;;;;;;;;;;;;;;;;;5073761;28;19959;-76
2024/04/06 03:26:14;;;;;;;;;;;;;;;;;;5068783;28;20390;-76
2024/04/06 03:28:41;;;;;;;;;;;;;;;;;;5070205;28;19968;-76
2024/04/06 03:31:08;;;;;;;;;;;;;;;;;;5069236;28;19950;-77
2024/04/06 03:33:34;;;;;;;;;;;;;;;;;;5071220;28;20332;-76
2024/04/06 03:36:01;;;;;;;;;;;;;;;;;;5066632;28;19966;-76
2024/04/06 03:38:28;;;;;;;;;;;;;;;;;;5068435;28;19932;-76
2024/04/06 03:40:55;;;;;;;;;;;;;;;;;;5068109;28;20067;-77
2024/04/06 03:43:21;;;;;;;;;;;;;;;;;;5067089;28;19932;-77
2024/04/06 03:45:49;;;;;;;;;;;;;;;;;;5066736;28;19950;-77
2024/04/06 03:48:15;;;;;;;;;;;;;;;;;;5062153;28;19929;-76
2024/04/06 03:50:42;;;;;;;;;;;;;;;;;;5062959;28;20388;-76
2024/04/06 03:53:10;;;;;;;;;;;;;;;;;;5062705;28;19935;-76
2024/04/06 03:55:37;;;;;;;;;;;;;;;;;;5063857;28;19928;-76
2024/04/06 03:58:03;;;;;;;;;;;;;;;;;;5067834;28;19932;-76
2024/04/06 04:00:31;;;;;;;;;;;;;;;;;;5065521;28;19986;-76
2024/04/06 04:02:57;;;;;;;;;;;;;;;;;;5063642;28;19952;-76
2024/04/06 04:05:24;;;;;;;;;;;;;;;;;;5066252;28;19933;-77
2024/04/06 04:07:50;;;;;;;;;;;;;;;;;;5068090;28;19981;-76
2024/04/06 04:10:17;;;;;;;;;;;;;;;;;;5066862;28;20405;-77
2024/04/06 04:12:43;;;;;;;;;;;;;;;;;;5067273;28;20395;-77
2024/04/06 04:15:11;;;;;;;;;;;;;;;;;;5068093;28;19974;-74
2024/04/06 04:17:37;;;;;;;;;;;;;;;;;;5064256;28;19929;-75
2024/04/06 04:20:05;;;;;;;;;;;;;;;;;;5064893;28;19975;-74
2024/04/06 04:22:31;;;;;;;;;;;;;;;;;;5064068;28;19977;-74
2024/04/06 04:24:58;;;;;;;;;;;;;;;;;;5067450;28;19929;-75
2024/04/06 04:27:24;;;;;;;;;;;;;;;;;;5065413;28;20010;-75
2024/04/06 04:29:52;;;;;;;;;;;;;;;;;;5060452;28;20038;-75
2024/04/06 04:32:18;;;;;;;;;;;;;;;;;;5065486;28;19983;-75
2024/04/06 04:34:45;;;;;;;;;;;;;;;;;;5063711;28;19935;-75
2024/04/06 04:37:11;;;;;;;;;;;;;;;;;;5062455;28;19970;-75
2024/04/06 04:39:38;;;;;;;;;;;;;;;;;;5062381;28;19935;-75
2024/04/06 04:42:04;;;;;;;;;;;;;;;;;;5066924;28;19951;-75
2024/04/06 04:44:31;;;;;;;;;;;;;;;;;;5063835;28;20045;-75
2024/04/06 04:46:57;;;;;;;;;;;;;;;;;;5064723;28;19928;-75
2024/04/06 04:49:25;;;;;;;;;;;;;;;;;;5063845;28;19935;-75
2024/04/06 04:51:51;;;;;;;;;;;;;;;;;;5066061;28;20306;-76
2024/04/06 04:54:18;;;;;;;;;;;;;;;;;;5060729;28;19937;-75
2024/04/06 04:56:44;;;;;;;;;;;;;;;;;;5062364;28;19928;-75
2024/04/06 04:59:12;;;;;;;;;;;;;;;;;;5066591;28;19935;-74
2024/04/06 05:01:38;;;;;;;;;;;;;;;;;;5067172;28;19924;-75
2024/04/06 05:04:05;;;;;;;;;;;;;;;;;;5065642;28;20307;-75
2024/04/06 05:06:31;;;;;;;;;;;;;;;;;;5062996;28;20354;-75
2024/04/06 05:08:59;;;;;;;;;;;;;;;;;;5063041;28;19941;-75
2024/04/06 05:11:25;;;;;;;;;;;;;;;;;;5059700;28;20048;-76
2024/04/06 05:13:52;;;;;;;;;;;;;;;;;;5062569;28;19928;-76
2024/04/06 05:16:18;;;;;;;;;;;;;;;;;;5063137;28;19928;-75
2024/04/06 05:18:45;;;;;;;;;;;;;;;;;;5064720;28;19936;-75
2024/04/06 05:21:11;;;;;;;;;;;;;;;;;;5065436;28;20388;-75
2024/04/06 05:23:38;;;;;;;;;;;;;;;;;;5063393;28;20397;-75
2024/04/06 05:26:04;;;;;;;;;;;;;;;;;;5068479;28;19971;-74
2024/04/06 05:28:31;;;;;;;;;;;;;;;;;;5068333;28;19932;-75
2024/04/06 05:30:57;;;;;;;;;;;;;;;;;;5065859;28;19928;-74
2024/04/06 05:33:24;;;;;;;;;;;;;;;;;;5069523;28;20299;-74
2024/04/06 05:35:50;;;;;;;;;;;;;;;;;;5069007;28;19928;-74
2024/04/06 05:38:17;;;;;;;;;;;;;;;;;;5069044;28;19962;-74
2024/04/06 05:40:44;;;;;;;;;;;;;;;;;;5071566;28;19932;-74
2024/04/06 05:43:11;;;;;;;;;;;;;;;;;;5072105;28;20410;-74
2024/04/06 05:45:37;;;;;;;;;;;;;;;;;;5068498;28;19982;-75
2024/04/06 05:48:04;;;;;;;;;;;;;;;;;;5067278;28;19933;-75
2024/04/06 05:50:30;;;;;;;;;;;;;;;;;;5069245;28;20395;-76
2024/04/06 05:52:57;;;;;;;;;;;;;;;;;;5067031;28;19933;-75
2024/04/06 05:55:23;;;;;;;;;;;;;;;;;;5069027;28;20431;-75
2024/04/06 05:57:51;;;;;;;;;;;;;;;;;;5070416;28;19936;-75
2024/04/06 06:00:17;;;;;;;;;;;;;;;;;;5070059;28;20038;-75
2024/04/06 06:02:44;;;;;;;;;;;;;;;;;;5068635;28;19932;-76
2024/04/06 06:05:10;;;;;;;;;;;;;;;;;;5068257;28;19928;-76
2024/04/06 06:07:37;;;;;;;;;;;;;;;;;;5066577;28;19937;-75
2024/04/06 06:10:03;;;;;;;;;;;;;;;;;;5066944;28;19940;-74
2024/04/06 06:12:30;;;;;;;;;;;;;;;;;;5063386;28;19932;-74
2024/04/06 06:14:56;;;;;;;;;;;;;;;;;;5068184;28;19982;-75
2024/04/06 06:17:23;;;;;;;;;;;;;;;;;;5064733;28;19932;-75
2024/04/06 06:19:49;;;;;;;;;;;;;;;;;;5060831;28;19932;-73
2024/04/06 06:22:16;;;;;;;;;;;;;;;;;;5062116;28;19936;-75
2024/04/06 06:24:42;;;;;;;;;;;;;;;;;;5064207;28;20009;-75
2024/04/06 06:27:10;;;;;;;;;;;;;;;;;;5062083;28;19935;-75
2024/04/06 06:29:36;;;;;;;;;;;;;;;;;;5060215;28;19928;-75
2024/04/06 06:32:03;;;;;;;;;;;;;;;;;;5062883;28;19933;-75
2024/04/06 06:34:29;;;;;;;;;;;;;;;;;;5063079;28;20013;-75
2024/04/06 06:36:56;;;;;;;;;;;;;;;;;;5065976;28;20394;-75
2024/04/06 06:39:22;;;;;;;;;;;;;;;;;;5066562;28;20426;-73
2024/04/06 06:41:51;;;;;;;;;;;;;;;;;;5064139;28;20027;-75
2024/04/06 06:44:17;;;;;;;;;;;;;;;;;;5060464;28;19936;-75
2024/04/06 06:46:44;;;;;;;;;;;;;;;;;;5064684;28;19932;-73
2024/04/06 06:49:10;;;;;;;;;;;;;;;;;;5063348;28;19976;-73
2024/04/06 06:51:37;;;;;;;;;;;;;;;;;;5065946;28;19928;-72
2024/04/06 06:54:03;;;;;;;;;;;;;;;;;;5064600;28;20428;-72
2024/04/06 06:56:30;;;;;;;;;;;;;;;;;;5065180;28;19928;-72
2024/04/06 06:58:57;;;;;;;;;;;;;;;;;;5068564;28;19924;-72
2024/04/06 07:01:24;;;;;;;;;;;;;;;;;;5068502;28;20402;-73
2024/04/06 07:03:51;;;;;;;;;;;;;;;;;;5062526;28;19983;-73
2024/04/06 07:06:17;;;;;;;;;;;;;;;;;;5064950;28;19932;-72
2024/04/06 07:08:44;;;;;;;;;;;;;;;;;;5061248;28;19932;-73
2024/04/06 07:11:10;;;;;;;;;;;;;;;;;;5066432;28;20418;-72
2024/04/06 07:13:37;;;;;;;;;;;;;;;;;;5066569;28;19935;-73
2024/04/06 07:16:04;;;;;;;;;;;;;;;;;;5067390;28;19998;-72
2024/04/06 07:18:31;;;;;;;;;;;;;;;;;;5067157;28;19930;-73
2024/04/06 07:20:57;;;;;;;;;;;;;;;;;;5065693;28;19928;-72
2024/04/06 07:23:24;;;;;;;;;;;;;;;;;;5064286;28;20738;-73
2024/04/06 07:25:50;;;;;;;;;;;;;;;;;;5065794;28;19975;-73
2024/04/06 07:28:17;;;;;;;;;;;;;;;;;;5065402;28;19928;-73
2024/04/06 07:30:44;;;;;;;;;;;;;;;;;;5066424;28;20017;-72
2024/04/06 07:33:11;;;;;;;;;;;;;;;;;;5067749;28;19929;-72
2024/04/06 07:35:37;;;;;;;;;;;;;;;;;;5067832;28;19928;-73
2024/04/06 07:38:04;;;;;;;;;;;;;;;;;;5058327;28;19939;-73
2024/04/06 07:40:30;;;;;;;;;;;;;;;;;;5064420;28;19971;-72
2024/04/06 07:42:57;;;;;;;;;;;;;;;;;;5073819;28;19947;-72
2024/04/06 07:45:23;;;;;;;;;;;;;;;;;;5066919;28;19940;-73
2024/04/06 07:47:50;;;;;;;;;;;;;;;;;;5065477;28;20687;-73
2024/04/06 07:50:16;;;;;;;;;;;;;;;;;;5065323;28;20447;-73
2024/04/06 07:52:44;;;;;;;;;;;;;;;;;;5065033;28;19939;-74
2024/04/06 07:55:10;;;;;;;;;;;;;;;;;;5056352;28;19936;-74
2024/04/06 07:57:37;;;;;;;;;;;;;;;;;;5066691;28;19928;-74
2024/04/06 08:00:05;;;;;;;;;;;;;;;;;;5064054;28;20202;-73
2024/04/06 08:02:32;;;;;;;;;;;;;;;;;;5055284;28;20302;-73
2024/04/06 08:04:58;;;;;;;;;;;;;;;;;;5051969;28;20022;-73
2024/04/06 08:07:25;;;;;;;;;;;;;;;;;;5054112;28;19935;-72
2024/04/06 08:09:51;;;;;;;;;;;;;;;;;;5059051;28;20089;-72
2024/04/06 08:12:18;;;;;;;;;;;;;;;;;;5058933;28;19940;-72
2024/04/06 08:14:44;;;;;;;;;;;;;;;;;;5056243;28;19929;-73
2024/04/06 08:17:11;;;;;;;;;;;;;;;;;;5061598;28;19940;-72
2024/04/06 08:19:37;;;;;;;;;;;;;;;;;;5054825;28;19976;-72
2024/04/06 08:22:04;;;;;;;;;;;;;;;;;;5054218;28;19939;-73
2024/04/06 08:24:30;;;;;;;;;;;;;;;;;;5060107;28;19972;-74
2024/04/06 08:26:57;;;;;;;;;;;;;;;;;;5054800;28;19928;-74
2024/04/06 08:29:23;;;;;;;;;;;;;;;;;;5053925;28;20041;-75
2024/04/06 08:31:50;;;;;;;;;;;;;;;;;;5056230;28;19928;-73
2024/04/06 08:34:17;;;;;;;;;;;;;;;;;;5052454;28;20027;-74
2024/04/06 08:36:44;;;;;;;;;;;;;;;;;;5054786;28;19939;-74
2024/04/06 08:39:10;;;;;;;;;;;;;;;;;;5055512;28;19968;-73
2024/04/06 08:41:37;;;;;;;;;;;;;;;;;;5054145;28;19932;-73
2024/04/06 08:44:03;;;;;;;;;;;;;;;;;;5055559;28;20035;-74
2024/04/06 08:46:30;;;;;;;;;;;;;;;;;;5051957;28;20415;-73
2024/04/06 08:48:56;;;;;;;;;;;;;;;;;;5054892;28;19951;-72
2024/04/06 08:51:23;;;;;;;;;;;;;;;;;;5054903;28;19932;-72
2024/04/06 08:53:49;;;;;;;;;;;;;;;;;;5055086;28;19936;-72
2024/04/06 08:56:16;;;;;;;;;;;;;;;;;;5054348;28;19933;-73
2024/04/06 08:58:42;;;;;;;;;;;;;;;;;;5055234;28;19974;-73
2024/04/06 09:01:10;;;;;;;;;;;;;;;;;;5054448;28;19936;-73
2024/04/06 09:03:37;;;;;;;;;;;;;;;;;;5053389;28;19928;-73
2024/04/06 09:06:04;;;;;;;;;;;;;;;;;;5055884;28;20308;-73
2024/04/06 09:08:30;;;;;;;;;;;;;;;;;;5055002;28;19982;-73
2024/04/06 09:10:58;;;;;;;;;;;;;;;;;;5056368;28;19929;-73
2024/04/06 09:13:24;;;;;;;;;;;;;;;;;;5054944;28;19932;-73
2024/04/06 09:15:51;;;;;;;;;;;;;;;;;;5054424;28;19928;-73
2024/04/06 09:18:17;;;;;;;;;;;;;;;;;;5054259;28;19939;-73
2024/04/06 09:20:46;;;;;;;;;;;;;;;;;;5052795;28;19976;-73
2024/04/06 09:23:12;;;;;;;;;;;;;;;;;;5055709;28;19989;-73
2024/04/06 09:25:40;;;;;;;;;;;;;;;;;;5051662;28;19929;-73
2024/04/06 09:28:06;;;;;;;;;;;;;;;;;;5053202;28;20395;-73
2024/04/06 09:30:33;;;;;;;;;;;;;;;;;;5052483;28;19929;-74
2024/04/06 09:32:59;;;;;;;;;;;;;;;;;;5052790;28;20101;-74
2024/04/06 09:35:26;;;;;;;;;;;;;;;;;;5053758;28;19939;-74
2024/04/06 09:37:53;;;;;;;;;;;;;;;;;;5053272;28;19928;-73
2024/04/06 09:40:21;;;;;;;;;;;;;;;;;;5054506;28;19932;-71
2024/04/06 09:42:47;;;;;;;;;;;;;;;;;;5054196;28;19933;-73
2024/04/06 09:45:14;;;;;;;;;;;;;;;;;;5057238;28;20407;-73
2024/04/06 09:47:40;;;;;;;;;;;;;;;;;;5053722;28;19959;-71
2024/04/06 09:50:07;;;;;;;;;;;;;;;;;;5054812;28;19932;-72
2024/04/06 09:52:34;;;;;;;;;;;;;;;;;;5058914;28;19933;-72
2024/04/06 09:55:01;;;;;;;;;;;;;;;;;;5052860;28;20395;-73
2024/04/06 09:57:27;;;;;;;;;;;;;;;;;;5055801;28;20395;-72
2024/04/06 09:59:54;;;;;;;;;;;;;;;;;;5053408;28;19951;-72
2024/04/06 10:02:20;;;;;;;;;;;;;;;;;;5052839;28;19970;-73
2024/04/06 10:04:47;;;;;;;;;;;;;;;;;;5057090;28;19932;-73
2024/04/06 10:07:14;;;;;;;;;;;;;;;;;;5049204;28;19983;-73
2024/04/06 10:09:41;;;;;;;;;;;;;;;;;;5061401;28;19952;-73
2024/04/06 10:12:08;;;;;;;;;;;;;;;;;;5066195;28;20054;-73
2024/04/06 10:14:35;;;;;;;;;;;;;;;;;;5061675;28;19928;-73
2024/04/06 10:17:01;;;;;;;;;;;;;;;;;;5068278;28;19974;-73
2024/04/06 10:19:28;;;;;;;;;;;;;;;;;;5068345;28;19928;-73
2024/04/06 10:21:54;;;;;;;;;;;;;;;;;;5067901;28;19929;-73
2024/04/06 10:24:21;;;;;;;;;;;;;;;;;;5065250;28;19928;-73
2024/04/06 10:26:47;;;;;;;;;;;;;;;;;;5067548;28;19932;-73
2024/04/06 10:29:14;;;;;;;;;;;;;;;;;;5068244;28;19933;-74
2024/04/06 10:31:40;;;;;;;;;;;;;;;;;;5067435;28;20404;-74
2024/04/06 10:34:08;;;;;;;;;;;;;;;;;;5067298;28;19924;-73
2024/04/06 10:36:34;;;;;;;;;;;;;;;;;;5066800;28;19939;-73
2024/04/06 10:39:01;;;;;;;;;;;;;;;;;;5068907;28;20353;-73
2024/04/06 10:41:27;;;;;;;;;;;;;;;;;;5069069;28;20326;-73
2024/04/06 10:43:54;;;;;;;;;;;;;;;;;;5065883;28;19928;-74
2024/04/06 10:46:20;;;;;;;;;;;;;;;;;;5067646;28;19967;-73
2024/04/06 10:48:47;;;;;;;;;;;;;;;;;;5074396;28;19935;-74
2024/04/06 10:51:13;;;;;;;;;;;;;;;;;;5064735;28;19936;-74
2024/04/06 10:53:40;;;;;;;;;;;;;;;;;;5065188;28;19997;-74
2024/04/06 10:56:06;;;;;;;;;;;;;;;;;;5059313;28;19976;-74
2024/04/06 10:58:33;;;;;;;;;;;;;;;;;;5067724;28;20320;-74
2024/04/06 11:00:59;;;;;;;;;;;;;;;;;;5067591;28;20068;-74
2024/04/06 11:03:26;;;;;;;;;;;;;;;;;;5063645;28;19937;-73
2024/04/06 11:05:52;;;;;;;;;;;;;;;;;;5064981;28;20210;-73
2024/04/06 11:08:19;;;;;;;;;;;;;;;;;;5072959;28;20311;-73
2024/04/06 11:10:46;;;;;;;;;;;;;;;;;;5073408;28;20036;-74
2024/04/06 11:13:13;;;;;;;;;;;;;;;;;;5071422;28;20031;-74
2024/04/06 11:15:40;;;;;;;;;;;;;;;;;;5073507;28;20007;-74
2024/04/06 11:18:07;;;;;;;;;;;;;;;;;;5086014;28;19935;-74
2024/04/06 11:20:33;;;;;;;;;;;;;;;;;;5073129;28;19975;-74
2024/04/06 11:23:00;;;;;;;;;;;;;;;;;;5075487;28;19929;-74
2024/04/06 11:25:26;;;;;;;;;;;;;;;;;;5074057;28;19981;-74
2024/04/06 11:27:53;;;;;;;;;;;;;;;;;;5071848;28;19935;-74
2024/04/06 11:30:19;;;;;;;;;;;;;;;;;;5079416;28;20023;-74
2024/04/06 11:32:48;;;;;;;;;;;;;;;;;;5082192;28;19928;-74
2024/04/06 11:35:14;;;;;;;;;;;;;;;;;;5076781;28;19932;-74
2024/04/06 11:37:41;;;;;;;;;;;;;;;;;;5080285;28;20381;-74
2024/04/06 11:40:07;;;;;;;;;;;;;;;;;;5070308;28;19982;-74
2024/04/06 11:42:34;;;;;;;;;;;;;;;;;;5082025;28;20414;-73
2024/04/06 11:45:00;;;;;;;;;;;;;;;;;;5074140;28;20468;-74
2024/04/06 11:47:27;;;;;;;;;;;;;;;;;;5074725;28;19929;-74
2024/04/06 11:49:53;;;;;;;;;;;;;;;;;;5081911;28;20235;-73
2024/04/06 11:52:20;;;;;;;;;;;;;;;;;;5067892;28;20074;-73
2024/04/06 11:54:46;;;;;;;;;;;;;;;;;;5079684;28;20420;-74
2024/04/06 11:57:13;;;;;;;;;;;;;;;;;;5067416;28;19935;-73
2024/04/06 11:59:39;;;;;;;;;;;;;;;;;;5079884;28;20448;-74
2024/04/06 12:02:07;;;;;;;;;;;;;;;;;;5082619;28;20351;-74
2024/04/06 12:04:33;;;;;;;;;;;;;;;;;;5070658;28;19967;-74
2024/04/06 12:07:00;;;;;;;;;;;;;;;;;;5079071;28;19928;-74
2024/04/06 12:09:26;;;;;;;;;;;;;;;;;;5076828;28;19928;-73
2024/04/06 12:11:53;;;;;;;;;;;;;;;;;;5059436;28;19929;-74
2024/04/06 12:14:19;;;;;;;;;;;;;;;;;;5078945;28;20573;-73
2024/04/06 12:16:46;;;;;;;;;;;;;;;;;;5085259;28;19992;-73
2024/04/06 12:19:13;;;;;;;;;;;;;;;;;;5075837;28;19928;-73
2024/04/06 12:21:40;;;;;;;;;;;;;;;;;;5079198;28;19928;-74
2024/04/06 12:24:06;;;;;;;;;;;;;;;;;;5069307;28;19979;-74
2024/04/06 12:26:33;;;;;;;;;;;;;;;;;;5073031;28;20009;-73
2024/04/06 12:28:59;;;;;;;;;;;;;;;;;;5077521;28;20020;-74
2024/04/06 12:31:26;;;;;;;;;;;;;;;;;;5064355;28;19928;-74
2024/04/06 12:33:52;;;;;;;;;;;;;;;;;;5082518;28;20307;-74
2024/04/06 12:36:19;;;;;;;;;;;;;;;;;;5068645;28;19986;-73
2024/04/06 12:38:45;;;;;;;;;;;;;;;;;;5081540;28;20048;-73
2024/04/06 12:41:12;;;;;;;;;;;;;;;;;;5077457;28;19931;-69
2024/04/06 12:43:39;;;;;;;;;;;;;;;;;;5085893;28;19928;-73
2024/04/06 12:46:06;;;;;;;;;;;;;;;;;;5069596;28;19932;-74
2024/04/06 12:48:32;;;;;;;;;;;;;;;;;;5065194;28;19932;-73
2024/04/06 12:50:59;;;;;;;;;;;;;;;;;;5074876;28;20342;-73
2024/04/06 12:53:25;;;;;;;;;;;;;;;;;;5075679;28;20031;-73
2024/04/06 12:55:52;;;;;;;;;;;;;;;;;;5082830;28;19928;-73
2024/04/06 12:58:18;;;;;;;;;;;;;;;;;;5068371;28;19990;-73
2024/04/06 13:00:45;;;;;;;;;;;;;;;;;;5071124;28;20422;-73
2024/04/06 13:03:11;;;;;;;;;;;;;;;;;;5069352;28;19936;-73
2024/04/06 13:05:38;;;;;;;;;;;;;;;;;;5078010;28;19928;-73
2024/04/06 13:08:04;;;;;;;;;;;;;;;;;;5081669;28;19932;-73
2024/04/06 13:10:31;;;;;;;;;;;;;;;;;;5069371;28;19928;-74
2024/04/06 13:12:57;;;;;;;;;;;;;;;;;;5077453;28;20029;-72
2024/04/06 13:15:25;;;;;;;;;;;;;;;;;;5076763;28;20003;-74
2024/04/06 13:17:51;;;;;;;;;;;;;;;;;;5065899;28;20033;-73
2024/04/06 13:20:25;;;;;;;;;;;;;;;;;;5081878;28;19934;-73
2024/04/06 13:22:51;;;;;;;;;;;;;;;;;;5070698;28;19939;-73
2024/04/06 13:25:18;;;;;;;;;;;;;;;;;;5074668;28;19935;-73
2024/04/06 13:27:45;;;;;;;;;;;;;;;;;;5079092;28;20256;-73
2024/04/06 13:30:12;;;;;;;;;;;;;;;;;;5068361;28;19951;-72
2024/04/06 13:32:38;;;;;;;;;;;;;;;;;;5073503;28;19933;-73
2024/04/06 13:35:06;;;;;;;;;;;;;;;;;;5084991;28;19928;-75
2024/04/06 13:37:32;;;;;;;;;;;;;;;;;;5078163;28;20837;-74
2024/04/06 13:39:59;;;;;;;;;;;;;;;;;;5065906;28;19936;-74
2024/04/06 13:42:25;;;;;;;;;;;;;;;;;;5068553;28;19983;-73
2024/04/06 13:44:52;;;;;;;;;;;;;;;;;;5073369;28;19935;-73
2024/04/06 13:47:18;;;;;;;;;;;;;;;;;;5066574;28;19932;-74
2024/04/06 13:49:45;;;;;;;;;;;;;;;;;;5070599;28;19933;-73
2024/04/06 13:52:11;;;;;;;;;;;;;;;;;;5085114;28;19932;-73
2024/04/06 13:54:38;;;;;;;;;;;;;;;;;;5067329;28;20273;-73
2024/04/06 13:57:05;;;;;;;;;;;;;;;;;;5068162;28;20034;-73
2024/04/06 13:59:33;;;;;;;;;;;;;;;;;;5062736;28;20022;-73
2024/04/06 14:01:59;;;;;;;;;;;;;;;;;;5082229;28;19928;-73
2024/04/06 14:04:26;;;;;;;;;;;;;;;;;;5081484;28;20387;-73
2024/04/06 14:06:52;;;;;;;;;;;;;;;;;;5081444;28;20337;-74
2024/04/06 14:09:19;;;;;;;;;;;;;;;;;;5071933;28;19936;-73
2024/04/06 14:11:45;;;;;;;;;;;;;;;;;;5071448;28;19928;-73
2024/04/06 14:14:12;;;;;;;;;;;;;;;;;;5072317;28;19929;-73
2024/04/06 14:16:39;;;;;;;;;;;;;;;;;;5087275;28;20303;-73
2024/04/06 14:19:06;;;;;;;;;;;;;;;;;;5079636;28;19932;-72
2024/04/06 14:21:32;;;;;;;;;;;;;;;;;;5076496;28;19971;-71
2024/04/06 14:23:59;;;;;;;;;;;;;;;;;;5084695;28;20361;-72
2024/04/06 14:26:25;;;;;;;;;;;;;;;;;;5072036;28;19928;-73
2024/04/06 14:28:52;;;;;;;;;;;;;;;;;;5080496;28;19943;-74
2024/04/06 14:31:18;;;;;;;;;;;;;;;;;;5073836;28;19967;-73
2024/04/06 14:33:45;;;;;;;;;;;;;;;;;;5082146;28;20334;-74
2024/04/06 14:36:11;;;;;;;;;;;;;;;;;;5071322;28;19928;-73
2024/04/06 14:38:38;;;;;;;;;;;;;;;;;;5074699;28;20390;-72
2024/04/06 14:41:04;;;;;;;;;;;;;;;;;;5078419;28;19932;-73
2024/04/06 14:43:33;;;;;;;;;;;;;;;;;;5075055;28;20288;-73
2024/04/06 14:45:59;;;;;;;;;;;;;;;;;;5075691;28;19974;-73
2024/04/06 14:48:27;;;;;;;;;;;;;;;;;;5072624;28;20023;-74
2024/04/06 14:50:53;;;;;;;;;;;;;;;;;;5081352;28;19974;-73
2024/04/06 14:53:20;;;;;;;;;;;;;;;;;;5061872;28;19928;-73
2024/04/06 14:55:46;;;;;;;;;;;;;;;;;;5068454;28;20024;-73
2024/04/06 14:58:13;;;;;;;;;;;;;;;;;;5082079;28;19997;-73
2024/04/06 15:00:39;;;;;;;;;;;;;;;;;;5062040;28;20329;-72
2024/04/06 15:03:07;;;;;;;;;;;;;;;;;;5071715;28;19933;-72
2024/04/06 15:05:33;;;;;;;;;;;;;;;;;;5080081;28;19928;-73
2024/04/06 15:08:00;;;;;;;;;;;;;;;;;;5070858;28;19935;-72
2024/04/06 15:10:26;;;;;;;;;;;;;;;;;;5057612;28;20020;-73
2024/04/06 15:12:53;;;;;;;;;;;;;;;;;;5080532;28;19929;-73
2024/04/06 15:15:20;;;;;;;;;;;;;;;;;;5078195;28;19935;-73
2024/04/06 15:17:47;;;;;;;;;;;;;;;;;;5073977;28;19928;-72
2024/04/06 15:20:13;;;;;;;;;;;;;;;;;;5080416;28;19932;-74
2024/04/06 15:22:40;;;;;;;;;;;;;;;;;;5072824;28;19928;-72
2024/04/06 15:25:06;;;;;;;;;;;;;;;;;;5072867;28;19964;-73
2024/04/06 15:27:33;;;;;;;;;;;;;;;;;;5079524;28;20460;-73
2024/04/06 15:30:00;;;;;;;;;;;;;;;;;;5070136;28;19929;-70
2024/04/06 15:32:27;;;;;;;;;;;;;;;;;;5067032;28;20020;-70
2024/04/06 15:34:53;;;;;;;;;;;;;;;;;;5065473;28;19960;-70
2024/04/06 15:37:20;;;;;;;;;;;;;;;;;;5064468;28;20377;-70
2024/04/06 15:39:46;;;;;;;;;;;;;;;;;;5066083;28;19936;-70
2024/04/06 15:42:14;;;;;;;;;;;;;;;;;;5067273;28;20282;-70
2024/04/06 15:44:40;;;;;;;;;;;;;;;;;;5069794;28;19951;-71
2024/04/06 15:47:07;;;;;;;;;;;;;;;;;;5066806;28;19982;-72
2024/04/06 15:49:33;;;;;;;;;;;;;;;;;;5068401;28;19932;-70
2024/04/06 15:52:00;;;;;;;;;;;;;;;;;;5068262;28;20362;-71
2024/04/06 15:54:27;;;;;;;;;;;;;;;;;;5066138;28;19928;-71
2024/04/06 15:56:55;;;;;;;;;;;;;;;;;;5072519;28;19928;-71
2024/04/06 15:59:21;;;;;;;;;;;;;;;;;;5069019;28;19928;-71
2024/04/06 16:01:48;;;;;;;;;;;;;;;;;;5067627;28;19932;-71
2024/04/06 16:04:16;;;;;;;;;;;;;;;;;;5073899;28;19933;-71
2024/04/06 16:06:43;;;;;;;;;;;;;;;;;;5062708;28;20399;-71
2024/04/06 16:09:09;;;;;;;;;;;;;;;;;;5054895;28;19983;-71
2024/04/06 16:11:36;;;;;;;;;;;;;;;;;;5069541;28;19986;-71
2024/04/06 16:14:02;;;;;;;;;;;;;;;;;;5065108;28;20346;-71
2024/04/06 16:16:29;;;;;;;;;;;;;;;;;;5072718;28;20260;-71
2024/04/06 16:18:55;;;;;;;;;;;;;;;;;;5066820;28;19994;-71
2024/04/06 16:21:22;;;;;;;;;;;;;;;;;;5067307;28;19928;-71
2024/04/06 16:23:48;;;;;;;;;;;;;;;;;;5076049;28;20029;-70
2024/04/06 16:26:15;;;;;;;;;;;;;;;;;;5068459;28;19935;-71
2024/04/06 16:28:41;;;;;;;;;;;;;;;;;;5068965;28;19936;-71
2024/04/06 16:31:08;;;;;;;;;;;;;;;;;;5075409;28;19927;-70
2024/04/06 16:33:35;;;;;;;;;;;;;;;;;;5065358;28;19976;-70
2024/04/06 16:36:02;;;;;;;;;;;;;;;;;;5056499;28;20017;-71
2024/04/06 16:38:28;;;;;;;;;;;;;;;;;;5061345;28;19972;-71
2024/04/06 16:40:55;;;;;;;;;;;;;;;;;;5058268;28;19929;-70